Time;durP1;ratioP1;P1;durP2;ratioP2;P2;SDS_P1;SDS_P2;PMS_P1;PMS_P2;Temp;Humidity;BMP_temperature;BMP_pressure;BME280_temperature;BME280_humidity;BME280_pressure;Samples;Min_cycle;Max_cycle;Signal;HPM_P1;HPM_P2
2023/06/13 00:00:10;;;;;;;5.67;4.20;;;;;;;;;;5070669;28;20390;-63
2023/06/13 00:02:38;;;;;;;6.80;4.17;;;;;;;;;;5049006;28;20259;-63
2023/06/13 00:05:06;;;;;;;4.40;3.70;;;;;;;;;;5063810;28;20209;-63
2023/06/13 00:07:37;;;;;;;5.07;4.17;;;;;;;;;;5073028;28;20209;-64
2023/06/13 00:10:05;;;;;;;4.50;4.10;;;;;;;;;;5063894;28;20218;-63
2023/06/13 00:12:34;;;;;;;5.40;4.43;;;;;;;;;;5061432;28;20274;-63
2023/06/13 00:15:03;;;;;;;4.17;3.77;;;;;;;;;;5070468;28;20626;-63
2023/06/13 00:17:31;;;;;;;6.00;4.50;;;;;;;;;;5050803;28;20208;-63
2023/06/13 00:19:59;;;;;;;4.73;3.97;;;;;;;;;;5064930;28;20217;-63
2023/06/13 00:22:28;;;;;;;4.63;4.03;;;;;;;;;;5064586;28;20225;-63
2023/06/13 00:24:55;;;;;;;4.30;3.90;;;;;;;;;;5058583;28;20205;-63
2023/06/13 00:27:23;;;;;;;4.17;3.77;;;;;;;;;;5050002;28;20236;-63
2023/06/13 00:29:50;;;;;;;5.10;4.00;;;;;;;;;;5059904;28;20205;-63
2023/06/13 00:32:17;;;;;;;5.33;4.03;;;;;;;;;;5056935;28;20271;-63
2023/06/13 00:34:46;;;;;;;5.90;4.20;;;;;;;;;;5060511;28;20256;-64
2023/06/13 00:37:14;;;;;;;4.40;4.00;;;;;;;;;;5057377;28;20706;-63
2023/06/13 00:39:41;;;;;;;4.20;3.80;;;;;;;;;;5065132;28;20226;-63
2023/06/13 00:42:10;;;;;;;4.23;3.83;;;;;;;;;;5062265;28;20232;-63
2023/06/13 00:44:37;;;;;;;4.63;4.13;;;;;;;;;;5055242;28;20199;-63
2023/06/13 00:47:05;;;;;;;4.03;3.60;;;;;;;;;;5060601;28;20206;-63
2023/06/13 00:49:33;;;;;;;5.13;4.00;;;;;;;;;;5064952;28;20206;-65
2023/06/13 00:52:04;;;;;;;4.00;3.70;;;;;;;;;;5058788;28;20225;-64
2023/06/13 00:54:36;;;;;;;4.00;3.70;;;;;;;;;;5061673;28;20198;-63
2023/06/13 00:57:05;;;;;;;5.03;3.77;;;;;;;;;;5045815;28;20220;-63
2023/06/13 00:59:33;;;;;;;4.93;3.80;;;;;;;;;;5056940;28;20866;-62
2023/06/13 01:02:00;;;;;;;6.23;3.93;;;;;;;;;;5059134;28;20280;-63
2023/06/13 01:04:30;;;;;;;4.50;3.90;;;;;;;;;;5067291;28;20574;-64
2023/06/13 01:07:00;;;;;;;3.93;3.47;;;;;;;;;;5064728;28;20193;-64
2023/06/13 01:09:27;;;;;;;5.73;4.07;;;;;;;;;;5063539;28;20206;-63
2023/06/13 01:12:00;;;;;;;4.37;3.87;;;;;;;;;;5047048;28;21202;-63
2023/06/13 01:14:30;;;;;;;4.30;3.90;;;;;;;;;;5062513;28;20247;-62
2023/06/13 01:17:04;;;;;;;4.50;4.10;;;;;;;;;;5065749;28;20671;-63
2023/06/13 01:19:31;;;;;;;4.40;4.00;;;;;;;;;;5063305;28;20359;-64
2023/06/13 01:21:59;;;;;;;4.13;3.73;;;;;;;;;;5064008;28;20304;-61
2023/06/13 01:24:35;;;;;;;3.63;3.33;;;;;;;;;;5058896;28;20224;-61
2023/06/13 01:27:03;;;;;;;6.07;4.10;;;;;;;;;;5059678;28;20229;-62
2023/06/13 01:29:33;;;;;;;4.70;3.77;;;;;;;;;;5063330;28;20237;-63
2023/06/13 01:32:00;;;;;;;5.03;3.93;;;;;;;;;;5059755;28;20233;-62
2023/06/13 01:34:28;;;;;;;4.73;4.20;;;;;;;;;;5061922;28;20671;-63
2023/06/13 01:36:55;;;;;;;4.13;3.70;;;;;;;;;;5059936;28;20216;-61
2023/06/13 01:39:23;;;;;;;3.93;3.63;;;;;;;;;;5062175;28;20210;-61
2023/06/13 01:41:51;;;;;;;4.30;3.80;;;;;;;;;;5051691;28;20651;-61
2023/06/13 01:44:19;;;;;;;5.30;3.93;;;;;;;;;;5064038;28;20198;-61
2023/06/13 01:47:19;;;;;;;4.60;3.77;;;;;;;;;;5069637;28;20197;-63
2023/06/13 01:49:47;;;;;;;4.67;3.60;;;;;;;;;;5036617;28;20204;-62
2023/06/13 01:52:20;;;;;;;4.33;3.87;;;;;;;;;;5062578;28;20249;-62
2023/06/13 01:54:50;;;;;;;4.33;3.87;;;;;;;;;;5064851;28;20619;-62
2023/06/13 01:57:20;;;;;;;4.97;3.87;;;;;;;;;;5063971;28;20279;-61
2023/06/13 01:59:52;;;;;;;4.07;3.67;;;;;;;;;;5074276;28;20229;-61
2023/06/13 02:02:20;;;;;;;5.13;4.03;;;;;;;;;;5065204;28;20221;-61
2023/06/13 02:04:49;;;;;;;4.47;3.83;;;;;;;;;;5071597;28;20202;-61
2023/06/13 02:07:17;;;;;;;4.50;4.10;;;;;;;;;;5062889;28;20663;-62
2023/06/13 02:09:44;;;;;;;7.47;4.30;;;;;;;;;;5068813;28;20234;-64
2023/06/13 02:12:12;;;;;;;5.27;4.17;;;;;;;;;;5066412;28;20234;-62
2023/06/13 02:14:40;;;;;;;4.10;3.70;;;;;;;;;;5065142;28;20198;-62
2023/06/13 02:17:08;;;;;;;6.23;4.27;;;;;;;;;;5064642;28;20202;-61
2023/06/13 02:19:35;;;;;;;5.80;4.47;;;;;;;;;;5068927;28;20212;-61
2023/06/13 02:22:03;;;;;;;4.27;3.87;;;;;;;;;;5070326;28;20238;-63
2023/06/13 02:24:30;;;;;;;4.37;3.87;;;;;;;;;;5067502;28;20209;-61
2023/06/13 02:26:58;;;;;;;6.40;4.07;;;;;;;;;;5080482;28;20209;-61
2023/06/13 02:29:26;;;;;;;5.50;4.70;;;;;;;;;;5079048;28;20676;-61
2023/06/13 02:31:53;;;;;;;5.67;4.67;;;;;;;;;;5083468;28;20224;-62
2023/06/13 02:34:20;;;;;;;6.03;4.13;;;;;;;;;;5069253;28;20255;-62
2023/06/13 02:36:48;;;;;;;5.27;4.00;;;;;;;;;;5052307;28;20671;-63
2023/06/13 02:39:15;;;;;;;4.40;3.80;;;;;;;;;;5085888;28;20201;-62
2023/06/13 02:41:43;;;;;;;5.80;4.30;;;;;;;;;;5083448;28;20232;-64
2023/06/13 02:44:10;;;;;;;5.57;4.40;;;;;;;;;;5082329;28;20666;-63
2023/06/13 02:46:37;;;;;;;6.47;4.33;;;;;;;;;;5077523;28;20701;-63
2023/06/13 02:49:04;;;;;;;4.90;4.37;;;;;;;;;;5081351;28;20208;-63
2023/06/13 02:51:32;;;;;;;7.17;4.33;;;;;;;;;;5070932;28;20302;-62
2023/06/13 02:53:59;;;;;;;6.53;4.90;;;;;;;;;;5079917;28;20200;-62
2023/06/13 02:56:28;;;;;;;8.10;5.70;;;;;;;;;;5075731;28;20201;-63
2023/06/13 02:58:56;;;;;;;7.27;4.97;;;;;;;;;;5070238;28;20197;-64
2023/06/13 03:01:23;;;;;;;7.30;5.53;;;;;;;;;;5069830;28;20643;-62
2023/06/13 03:03:51;;;;;;;7.17;4.47;;;;;;;;;;5071691;28;20223;-62
2023/06/13 03:06:18;;;;;;;4.63;4.10;;;;;;;;;;5064446;28;20288;-64
2023/06/13 03:08:46;;;;;;;8.17;5.13;;;;;;;;;;5066348;28;20259;-64
2023/06/13 03:11:13;;;;;;;6.40;5.13;;;;;;;;;;5058811;28;20283;-62
2023/06/13 03:13:40;;;;;;;6.50;5.57;;;;;;;;;;5062577;28;20212;-62
2023/06/13 03:16:08;;;;;;;6.77;4.80;;;;;;;;;;5059023;28;20650;-62
2023/06/13 03:18:36;;;;;;;5.80;5.20;;;;;;;;;;5069615;28;20472;-61
2023/06/13 03:21:04;;;;;;;6.10;4.33;;;;;;;;;;5067389;28;20237;-62
2023/06/13 03:23:32;;;;;;;5.53;5.00;;;;;;;;;;5067839;28;20229;-62
2023/06/13 03:26:00;;;;;;;5.73;4.77;;;;;;;;;;5048527;28;20201;-63
2023/06/13 03:28:29;;;;;;;5.53;4.67;;;;;;;;;;5070107;28;20198;-60
2023/06/13 03:30:57;;;;;;;7.97;4.50;;;;;;;;;;5069954;28;20231;-63
2023/06/13 03:33:25;;;;;;;4.60;4.17;;;;;;;;;;5068927;28;20206;-62
2023/06/13 03:35:53;;;;;;;5.40;4.53;;;;;;;;;;5067787;28;20255;-62
2023/06/13 03:38:27;;;;;;;7.83;4.97;;;;;;;;;;5066646;28;20633;-63
2023/06/13 03:40:55;;;;;;;6.27;4.63;;;;;;;;;;5072445;28;20220;-63
2023/06/13 03:43:22;;;;;;;5.60;4.70;;;;;;;;;;5056582;28;20206;-64
2023/06/13 03:45:49;;;;;;;5.63;4.40;;;;;;;;;;5067623;28;20270;-61
2023/06/13 03:48:17;;;;;;;5.50;4.37;;;;;;;;;;5065482;28;20623;-63
2023/06/13 03:50:45;;;;;;;5.57;4.60;;;;;;;;;;5062790;28;20204;-63
2023/06/13 03:53:12;;;;;;;5.17;3.97;;;;;;;;;;5063544;28;20616;-63
2023/06/13 03:55:39;;;;;;;5.10;4.60;;;;;;;;;;5062850;28;20296;-63
2023/06/13 03:58:07;;;;;;;4.63;4.17;;;;;;;;;;5061895;28;20212;-63
2023/06/13 04:00:34;;;;;;;4.30;3.90;;;;;;;;;;5042463;28;20221;-64
2023/06/13 04:03:02;;;;;;;4.53;4.10;;;;;;;;;;5063604;28;20229;-63
2023/06/13 04:05:31;;;;;;;7.47;4.10;;;;;;;;;;5062283;28;20194;-63
2023/06/13 04:07:58;;;;;;;4.47;3.77;;;;;;;;;;5069359;28;20694;-64
2023/06/13 04:10:25;;;;;;;4.90;4.00;;;;;;;;;;5068213;28;20235;-64
2023/06/13 04:12:53;;;;;;;5.77;3.70;;;;;;;;;;5061348;28;20233;-63
2023/06/13 04:15:21;;;;;;;4.50;4.10;;;;;;;;;;5064106;28;20206;-64
2023/06/13 04:17:52;;;;;;;5.00;3.93;;;;;;;;;;5067734;28;20215;-63
2023/06/13 04:20:21;;;;;;;4.50;4.00;;;;;;;;;;5066414;28;20258;-62
2023/06/13 04:22:49;;;;;;;4.63;3.70;;;;;;;;;;5067628;28;20236;-64
2023/06/13 04:25:17;;;;;;;6.27;4.07;;;;;;;;;;5063762;28;20203;-61
2023/06/13 04:27:44;;;;;;;4.77;3.73;;;;;;;;;;5056414;28;20254;-62
2023/06/13 04:30:12;;;;;;;5.30;3.93;;;;;;;;;;5049156;28;20229;-63
2023/06/13 04:32:43;;;;;;;4.10;3.77;;;;;;;;;;5056320;28;20295;-63
2023/06/13 04:35:16;;;;;;;4.37;4.00;;;;;;;;;;5058632;28;20205;-63
2023/06/13 04:37:46;;;;;;;3.80;3.40;;;;;;;;;;5072200;28;20305;-62
2023/06/13 04:40:13;;;;;;;3.97;3.60;;;;;;;;;;5080560;28;20209;-63
2023/06/13 04:42:47;;;;;;;4.20;3.67;;;;;;;;;;5066556;28;20229;-63
2023/06/13 04:45:20;;;;;;;3.87;3.30;;;;;;;;;;5059987;28;20201;-63
2023/06/13 04:47:48;;;;;;;4.07;3.67;;;;;;;;;;5069745;28;20659;-63
2023/06/13 04:50:25;;;;;;;3.17;2.93;;;;;;;;;;5068198;28;20219;-63
2023/06/13 04:52:53;;;;;;;4.27;3.10;;;;;;;;;;5058126;28;20232;-63
2023/06/13 04:55:22;;;;;;;3.53;3.23;;;;;;;;;;5060229;28;20215;-63
2023/06/13 04:57:50;;;;;;;4.73;3.43;;;;;;;;;;5063808;28;20205;-62
2023/06/13 05:00:18;;;;;;;3.30;3.00;;;;;;;;;;5056425;28;20275;-63
2023/06/13 05:02:46;;;;;;;3.50;3.20;;;;;;;;;;5064008;28;20218;-62
2023/06/13 05:05:16;;;;;;;4.97;3.20;;;;;;;;;;5047976;28;20206;-64
2023/06/13 05:07:44;;;;;;;4.20;3.40;;;;;;;;;;5068531;28;20575;-63
2023/06/13 05:10:12;;;;;;;3.77;3.10;;;;;;;;;;5061352;28;20287;-64
2023/06/13 05:12:44;;;;;;;3.63;3.10;;;;;;;;;;5079323;28;20247;-64
2023/06/13 05:15:11;;;;;;;4.77;3.00;;;;;;;;;;5067317;28;20201;-65
2023/06/13 05:17:39;;;;;;;4.10;3.70;;;;;;;;;;5074974;28;20202;-62
2023/06/13 05:20:07;;;;;;;3.47;3.17;;;;;;;;;;5072516;28;20206;-62
2023/06/13 05:22:34;;;;;;;6.03;3.17;;;;;;;;;;5057046;28;20235;-64
2023/06/13 05:25:02;;;;;;;3.70;3.00;;;;;;;;;;5065793;28;20218;-65
2023/06/13 05:27:29;;;;;;;5.25;2.95;;;;;;;;;;5066975;28;20228;-63
2023/06/13 05:29:56;;;;;;;3.47;2.60;;;;;;;;;;5060414;28;20243;-63
2023/06/13 05:32:23;;;;;;;3.30;2.70;;;;;;;;;;5062709;28;20233;-64
2023/06/13 05:34:51;;;;;;;3.33;2.47;;;;;;;;;;5079196;28;20246;-64
2023/06/13 05:37:19;;;;;;;4.57;2.92;;;;;;;;;;5060404;28;20259;-64
2023/06/13 05:39:46;;;;;;;3.92;2.80;;;;;;;;;;5070280;28;20207;-64
2023/06/13 05:42:13;;;;;;;3.22;2.72;;;;;;;;;;5072340;28;20286;-64
2023/06/13 05:44:40;;;;;;;3.10;2.65;;;;;;;;;;5078176;28;20201;-64
2023/06/13 05:47:08;;;;;;;3.67;2.47;;;;;;;;;;5067505;28;20197;-64
2023/06/13 05:49:35;;;;;;;3.58;2.58;;;;;;;;;;5068196;28;20618;-61
2023/06/13 05:52:02;;;;;;;4.57;2.83;;;;;;;;;;5069112;28;20221;-65
2023/06/13 05:54:30;;;;;;;5.07;2.67;;;;;;;;;;5061960;28;20290;-63
2023/06/13 05:56:59;;;;;;;3.88;2.50;;;;;;;;;;5062994;28;20212;-65
2023/06/13 05:59:26;;;;;;;3.70;2.08;;;;;;;;;;5068098;28;20201;-65
2023/06/13 06:01:54;;;;;;;3.40;2.75;;;;;;;;;;5064516;28;20704;-65
2023/06/13 06:04:21;;;;;;;4.63;2.70;;;;;;;;;;5069953;28;20198;-63
2023/06/13 06:06:48;;;;;;;3.53;2.53;;;;;;;;;;5042896;28;20201;-66
2023/06/13 06:09:16;;;;;;;3.38;2.95;;;;;;;;;;5048951;28;20263;-62
2023/06/13 06:11:43;;;;;;;4.10;2.63;;;;;;;;;;5051261;28;20233;-65
2023/06/13 06:14:11;;;;;;;4.10;2.72;;;;;;;;;;5049186;28;20292;-65
2023/06/13 06:16:38;;;;;;;3.00;2.80;;;;;;;;;;5056867;28;20206;-64
2023/06/13 06:19:06;;;;;;;3.90;2.78;;;;;;;;;;5065037;28;20271;-64
2023/06/13 06:21:33;;;;;;;4.22;2.67;;;;;;;;;;5073816;28;20586;-64
2023/06/13 06:24:01;;;;;;;4.20;2.85;;;;;;;;;;5070372;28;20632;-63
2023/06/13 06:26:28;;;;;;;2.80;2.55;;;;;;;;;;5071622;28;20213;-64
2023/06/13 06:28:55;;;;;;;2.80;2.60;;;;;;;;;;5058334;28;20325;-64
2023/06/13 06:31:24;;;;;;;4.05;2.60;;;;;;;;;;5047715;28;20312;-62
2023/06/13 06:33:51;;;;;;;3.08;2.78;;;;;;;;;;5065235;28;20209;-63
2023/06/13 06:36:19;;;;;;;3.38;2.80;;;;;;;;;;5075651;28;20208;-63
2023/06/13 06:38:46;;;;;;;5.05;3.40;;;;;;;;;;5076243;28;20213;-64
2023/06/13 06:41:14;;;;;;;5.80;4.68;;;;;;;;;;5068019;28;20225;-63
2023/06/13 06:43:42;;;;;;;5.70;4.50;;;;;;;;;;5068207;28;20198;-64
2023/06/13 06:46:10;;;;;;;6.97;5.50;;;;;;;;;;5062390;28;20193;-64
2023/06/13 06:48:39;;;;;;;7.00;4.80;;;;;;;;;;5062925;28;20202;-64
2023/06/13 06:51:06;;;;;;;7.95;5.47;;;;;;;;;;5072551;28;20217;-63
2023/06/13 06:53:34;;;;;;;3.67;3.13;;;;;;;;;;5074134;28;20213;-64
2023/06/13 06:56:01;;;;;;;3.58;3.28;;;;;;;;;;5067259;28;20205;-64
2023/06/13 06:58:28;;;;;;;3.85;3.25;;;;;;;;;;5058790;28;20212;-63
2023/06/13 07:00:57;;;;;;;5.63;3.08;;;;;;;;;;5055213;28;20605;-62
2023/06/13 07:03:24;;;;;;;5.43;3.13;;;;;;;;;;5062817;28;20205;-63
2023/06/13 07:05:52;;;;;;;3.35;2.70;;;;;;;;;;5046545;28;20293;-63
2023/06/13 07:08:19;;;;;;;4.68;3.25;;;;;;;;;;5069702;28;20201;-63
2023/06/13 07:10:46;;;;;;;4.22;3.08;;;;;;;;;;5069299;28;20293;-63
2023/06/13 07:13:18;;;;;;;3.40;3.10;;;;;;;;;;5066966;28;20205;-63
2023/06/13 07:15:45;;;;;;;3.42;2.90;;;;;;;;;;5071642;28;20206;-63
2023/06/13 07:18:13;;;;;;;3.15;2.60;;;;;;;;;;5067685;28;20295;-62
2023/06/13 07:20:40;;;;;;;4.13;2.97;;;;;;;;;;5066113;28;20206;-63
2023/06/13 07:23:08;;;;;;;3.20;2.85;;;;;;;;;;5069063;28;20232;-62
2023/06/13 07:25:38;;;;;;;4.72;3.00;;;;;;;;;;5045689;28;20209;-62
2023/06/13 07:28:10;;;;;;;3.80;3.05;;;;;;;;;;5066178;28;20678;-63
2023/06/13 07:30:37;;;;;;;3.08;2.80;;;;;;;;;;5062322;28;20209;-63
2023/06/13 07:33:05;;;;;;;3.97;2.78;;;;;;;;;;5050337;28;20220;-62
2023/06/13 07:35:34;;;;;;;4.88;2.80;;;;;;;;;;5057524;28;20247;-64
2023/06/13 07:38:01;;;;;;;5.20;3.13;;;;;;;;;;5067342;28;20614;-62
2023/06/13 07:40:28;;;;;;;4.10;2.80;;;;;;;;;;5053998;28;20208;-63
2023/06/13 07:42:56;;;;;;;5.15;3.10;;;;;;;;;;5053720;28;20247;-63
2023/06/13 07:45:23;;;;;;;4.72;2.90;;;;;;;;;;5051971;28;20206;-63
2023/06/13 07:47:54;;;;;;;4.97;3.30;;;;;;;;;;5062800;28;20461;-63
2023/06/13 07:50:23;;;;;;;3.97;2.83;;;;;;;;;;5070618;28;20228;-63
2023/06/13 07:52:50;;;;;;;3.75;2.80;;;;;;;;;;5080694;28;20220;-63
2023/06/13 07:55:18;;;;;;;4.47;2.90;;;;;;;;;;5068654;28;20750;-63
2023/06/13 07:57:45;;;;;;;4.40;3.15;;;;;;;;;;5060923;28;20651;-63
2023/06/13 08:00:25;;;;;;;4.97;2.83;;;;;;;;;;5066553;28;20224;-63
2023/06/13 08:02:52;;;;;;;6.72;2.83;;;;;;;;;;5061236;28;20233;-64
2023/06/13 08:05:20;;;;;;;4.93;2.60;;;;;;;;;;5047567;28;20626;-63
2023/06/13 08:07:47;;;;;;;6.22;3.00;;;;;;;;;;5050835;28;20271;-63
2023/06/13 08:10:15;;;;;;;4.95;2.95;;;;;;;;;;5066192;28;20241;-63
2023/06/13 08:12:42;;;;;;;5.68;2.90;;;;;;;;;;5062590;28;20286;-63
2023/06/13 08:15:10;;;;;;;6.43;2.90;;;;;;;;;;5060323;28;20201;-64
2023/06/13 08:17:41;;;;;;;5.10;3.00;;;;;;;;;;5067451;28;20726;-63
2023/06/13 08:20:10;;;;;;;3.67;3.08;;;;;;;;;;5066297;28;20224;-63
2023/06/13 08:22:38;;;;;;;3.80;2.70;;;;;;;;;;5072268;28;20275;-63
2023/06/13 08:25:08;;;;;;;3.83;2.70;;;;;;;;;;5044017;28;20276;-63
2023/06/13 08:27:36;;;;;;;4.03;3.25;;;;;;;;;;5060683;28;20203;-64
2023/06/13 08:30:04;;;;;;;3.17;2.55;;;;;;;;;;5066046;28;20220;-64
2023/06/13 08:32:31;;;;;;;3.25;2.92;;;;;;;;;;5063133;28;20226;-63
2023/06/13 08:35:03;;;;;;;3.30;2.85;;;;;;;;;;5066286;28;20266;-65
2023/06/13 08:37:30;;;;;;;4.72;2.60;;;;;;;;;;5066534;28;20198;-63
2023/06/13 08:39:58;;;;;;;4.90;2.80;;;;;;;;;;5066646;28;20703;-64
2023/06/13 08:42:26;;;;;;;2.80;2.60;;;;;;;;;;5066471;28;20237;-65
2023/06/13 08:44:53;;;;;;;4.85;2.90;;;;;;;;;;5067270;28;20209;-64
2023/06/13 08:47:21;;;;;;;2.78;2.58;;;;;;;;;;5050576;28;20602;-64
2023/06/13 08:50:04;;;;;;;4.78;2.90;;;;;;;;;;5077811;28;20595;-64
2023/06/13 08:52:37;;;;;;;3.17;2.83;;;;;;;;;;5070147;28;20598;-64
2023/06/13 08:55:07;;;;;;;3.45;2.45;;;;;;;;;;5068633;28;20194;-64
2023/06/13 08:57:54;;;;;;;3.58;2.80;;;;;;;;;;5081007;28;20205;-64
2023/06/13 09:00:25;;;;;;;3.13;2.50;;;;;;;;;;5097485;28;20261;-63
2023/06/13 09:02:52;;;;;;;5.28;3.10;;;;;;;;;;5097220;28;20247;-63
2023/06/13 09:05:20;;;;;;;4.35;2.97;;;;;;;;;;5091601;28;20223;-64
2023/06/13 09:07:48;;;;;;;6.75;3.00;;;;;;;;;;5093322;28;20636;-64
2023/06/13 09:10:16;;;;;;;3.95;2.50;;;;;;;;;;5081715;28;20265;-64
2023/06/13 09:12:46;;;;;;;5.60;2.70;;;;;;;;;;5070716;28;20249;-64
2023/06/13 09:15:13;;;;;;;4.03;2.72;;;;;;;;;;5070305;28;20197;-63
2023/06/13 09:17:42;;;;;;;5.50;2.70;;;;;;;;;;5081151;28;20298;-62
2023/06/13 09:20:10;;;;;;;3.25;2.67;;;;;;;;;;5076424;28;20216;-63
2023/06/13 09:22:38;;;;;;;2.75;2.55;;;;;;;;;;5076962;28;20224;-63
2023/06/13 09:25:08;;;;;;;3.17;2.67;;;;;;;;;;5057444;28;20788;-64
2023/06/13 09:27:36;;;;;;;4.47;2.88;;;;;;;;;;5075022;28;20202;-63
2023/06/13 09:30:04;;;;;;;5.10;2.90;;;;;;;;;;5066285;28;20265;-64
2023/06/13 09:32:31;;;;;;;5.80;2.78;;;;;;;;;;5071187;28;20229;-64
2023/06/13 09:34:58;;;;;;;4.82;2.97;;;;;;;;;;5075820;28;20207;-66
2023/06/13 09:37:26;;;;;;;3.22;2.90;;;;;;;;;;5071887;28;20201;-64
2023/06/13 09:39:53;;;;;;;3.17;2.88;;;;;;;;;;5055922;28;20767;-64
2023/06/13 09:42:44;;;;;;;3.53;3.10;;;;;;;;;;5060614;28;20278;-64
2023/06/13 09:45:31;;;;;;;3.22;2.90;;;;;;;;;;5069940;28;20209;-63
2023/06/13 09:47:58;;;;;;;6.13;2.83;;;;;;;;;;5068665;28;20205;-64
2023/06/13 09:50:30;;;;;;;4.90;2.70;;;;;;;;;;5064438;28;20201;-63
2023/06/13 09:52:58;;;;;;;3.25;2.95;;;;;;;;;;5074491;28;20221;-63
2023/06/13 09:55:25;;;;;;;2.78;2.58;;;;;;;;;;5069914;28;20660;-63
2023/06/13 09:57:52;;;;;;;4.10;2.70;;;;;;;;;;5052050;28;20209;-62
2023/06/13 10:00:23;;;;;;;4.38;2.90;;;;;;;;;;5067674;28;20209;-63
2023/06/13 10:02:50;;;;;;;7.63;2.92;;;;;;;;;;5079406;28;20279;-62
2023/06/13 10:05:18;;;;;;;5.03;2.92;;;;;;;;;;5076013;28;20287;-61
2023/06/13 10:07:47;;;;;;;2.80;2.60;;;;;;;;;;5073382;28;20267;-63
2023/06/13 10:10:14;;;;;;;3.95;2.70;;;;;;;;;;5057694;28;20202;-63
2023/06/13 10:12:53;;;;;;;6.45;3.08;;;;;;;;;;5059688;28;20258;-63
2023/06/13 10:15:40;;;;;;;6.45;3.10;;;;;;;;;;5064339;28;20201;-64
2023/06/13 10:18:12;;;;;;;4.03;3.20;;;;;;;;;;5059172;28;20201;-63
2023/06/13 10:20:40;;;;;;;4.88;3.22;;;;;;;;;;5072800;28;20721;-64
2023/06/13 10:23:07;;;;;;;5.20;3.15;;;;;;;;;;5045350;28;20717;-62
2023/06/13 10:25:35;;;;;;;4.20;2.63;;;;;;;;;;5059171;28;20202;-64
2023/06/13 10:28:11;;;;;;;3.55;2.90;;;;;;;;;;5070429;28;20289;-63
2023/06/13 10:30:52;;;;;;;3.15;2.85;;;;;;;;;;5058107;28;20729;-64
2023/06/13 10:33:19;;;;;;;7.45;3.10;;;;;;;;;;5046265;28;20209;-63
2023/06/13 10:36:20;;;;;;;4.38;2.80;;;;;;;;;;5050762;28;20200;-63
2023/06/13 10:38:54;;;;;;;3.40;2.78;;;;;;;;;;5029263;28;20205;-63
2023/06/13 10:41:33;;;;;;;5.47;2.80;;;;;;;;;;5067767;28;20225;-63
2023/06/13 10:44:04;;;;;;;5.72;3.00;;;;;;;;;;5066407;28;20248;-63
2023/06/13 10:46:33;;;;;;;5.03;2.60;;;;;;;;;;5073955;28;20208;-63
2023/06/13 10:49:00;;;;;;;4.43;3.03;;;;;;;;;;5070200;28;20201;-64
2023/06/13 10:51:30;;;;;;;4.32;2.88;;;;;;;;;;5045769;28;20851;-63
2023/06/13 10:54:03;;;;;;;4.07;3.10;;;;;;;;;;5063958;28;20270;-64
2023/06/13 10:56:31;;;;;;;4.65;3.00;;;;;;;;;;5070957;28;20663;-63
2023/06/13 10:59:02;;;;;;;5.20;3.00;;;;;;;;;;5069807;28;20204;-64
2023/06/13 11:01:30;;;;;;;3.85;2.70;;;;;;;;;;5074693;28;20245;-63
2023/06/13 11:04:05;;;;;;;4.70;2.60;;;;;;;;;;5068290;28;20221;-63
2023/06/13 11:06:33;;;;;;;3.08;2.88;;;;;;;;;;5064942;28;20247;-61
2023/06/13 11:09:10;;;;;;;4.93;3.25;;;;;;;;;;5068943;28;20647;-62
2023/06/13 11:11:52;;;;;;;3.38;3.03;;;;;;;;;;5060611;28;20247;-61
2023/06/13 11:14:21;;;;;;;3.40;2.92;;;;;;;;;;5063301;28;20377;-62
2023/06/13 11:16:48;;;;;;;2.88;2.60;;;;;;;;;;5062106;28;20213;-62
2023/06/13 11:19:17;;;;;;;5.13;2.50;;;;;;;;;;5071547;28;20209;-62
2023/06/13 11:21:53;;;;;;;3.50;2.85;;;;;;;;;;5069729;28;20582;-63
2023/06/13 11:24:20;;;;;;;3.08;2.80;;;;;;;;;;5066451;28;20213;-64
2023/06/13 11:26:49;;;;;;;6.70;2.92;;;;;;;;;;5074489;28;20220;-64
2023/06/13 11:29:18;;;;;;;4.63;2.50;;;;;;;;;;5047903;28;20194;-62
2023/06/13 11:31:45;;;;;;;3.90;3.00;;;;;;;;;;5077884;28;20299;-65
2023/06/13 11:34:15;;;;;;;5.88;2.80;;;;;;;;;;5066520;28;20193;-64
2023/06/13 11:36:43;;;;;;;5.55;2.80;;;;;;;;;;5064194;28;20285;-63
2023/06/13 11:39:21;;;;;;;3.00;2.70;;;;;;;;;;5047519;28;20216;-63
2023/06/13 11:41:48;;;;;;;3.70;2.80;;;;;;;;;;5065329;28;20225;-63
2023/06/13 11:44:16;;;;;;;3.35;2.85;;;;;;;;;;5061952;28;20221;-62
2023/06/13 11:46:43;;;;;;;5.00;3.13;;;;;;;;;;5063501;28;20201;-62
2023/06/13 11:49:14;;;;;;;5.53;3.10;;;;;;;;;;5060605;28;20201;-62
2023/06/13 11:51:42;;;;;;;3.40;2.88;;;;;;;;;;5076994;28;20232;-63
2023/06/13 11:54:11;;;;;;;3.28;2.97;;;;;;;;;;5065327;28;20204;-62
2023/06/13 11:56:50;;;;;;;7.35;2.80;;;;;;;;;;5065018;28;20747;-62
2023/06/13 11:59:18;;;;;;;5.28;2.75;;;;;;;;;;5054360;28;20332;-63
2023/06/13 12:01:49;;;;;;;4.97;3.00;;;;;;;;;;5070872;28;20251;-62
2023/06/13 12:04:17;;;;;;;2.70;2.50;;;;;;;;;;5050135;28;20222;-63
2023/06/13 12:06:45;;;;;;;6.07;2.85;;;;;;;;;;5063449;28;20193;-63
2023/06/13 12:09:14;;;;;;;4.93;3.20;;;;;;;;;;5065856;28;20197;-63
2023/06/13 12:11:42;;;;;;;3.33;3.03;;;;;;;;;;5055873;28;20213;-63
2023/06/13 12:14:09;;;;;;;4.00;2.60;;;;;;;;;;5068689;28;20263;-62
2023/06/13 12:16:37;;;;;;;3.38;3.08;;;;;;;;;;5057433;28;20224;-63
2023/06/13 12:19:06;;;;;;;2.63;2.40;;;;;;;;;;5077451;28;20666;-62
2023/06/13 12:21:36;;;;;;;4.55;2.97;;;;;;;;;;5068611;28;20234;-62
2023/06/13 12:24:08;;;;;;;3.47;2.80;;;;;;;;;;5068735;28;20261;-63
2023/06/13 12:26:41;;;;;;;4.03;2.88;;;;;;;;;;5066156;28;20198;-63
2023/06/13 12:29:11;;;;;;;4.47;2.70;;;;;;;;;;5061011;28;20251;-63
2023/06/13 12:31:41;;;;;;;2.95;2.75;;;;;;;;;;5064508;28;20714;-63
2023/06/13 12:34:16;;;;;;;5.20;2.70;;;;;;;;;;5061601;28;20204;-62
2023/06/13 12:36:45;;;;;;;4.80;2.85;;;;;;;;;;5069517;28;20656;-62
2023/06/13 12:39:14;;;;;;;6.50;3.25;;;;;;;;;;5056250;28;20201;-63
2023/06/13 12:41:46;;;;;;;3.45;3.15;;;;;;;;;;5080529;28;20225;-62
2023/06/13 12:44:14;;;;;;;3.20;3.00;;;;;;;;;;5063660;28;20335;-63
2023/06/13 12:46:42;;;;;;;2.92;2.60;;;;;;;;;;5049216;28;20202;-64
2023/06/13 12:49:10;;;;;;;5.90;3.00;;;;;;;;;;5069438;28;20227;-63
2023/06/13 12:51:54;;;;;;;3.35;2.90;;;;;;;;;;5070567;28;20213;-63
2023/06/13 12:54:25;;;;;;;5.18;2.97;;;;;;;;;;5072235;28;20227;-62
2023/06/13 12:57:00;;;;;;;5.65;3.40;;;;;;;;;;5076200;28;20206;-64
2023/06/13 12:59:35;;;;;;;4.22;3.13;;;;;;;;;;5053161;28;20228;-62
2023/06/13 13:02:04;;;;;;;4.18;2.97;;;;;;;;;;5066696;28;20649;-62
2023/06/13 13:04:32;;;;;;;5.22;3.05;;;;;;;;;;5064574;28;20221;-62
2023/06/13 13:07:04;;;;;;;4.43;3.08;;;;;;;;;;5069882;28;20202;-62
2023/06/13 13:09:32;;;;;;;6.45;3.53;;;;;;;;;;5062303;28;20232;-63
2023/06/13 13:11:59;;;;;;;3.28;2.95;;;;;;;;;;5069493;28;20221;-63
2023/06/13 13:14:27;;;;;;;3.80;2.72;;;;;;;;;;5049297;28;20588;-63
2023/06/13 13:16:55;;;;;;;4.22;3.17;;;;;;;;;;5055988;28;20209;-63
2023/06/13 13:19:23;;;;;;;3.45;3.20;;;;;;;;;;5048134;28;20618;-62
2023/06/13 13:21:52;;;;;;;4.03;3.17;;;;;;;;;;5067707;28;20274;-64
2023/06/13 13:24:19;;;;;;;4.10;3.05;;;;;;;;;;5075718;28;20268;-64
2023/06/13 13:26:54;;;;;;;4.13;3.45;;;;;;;;;;5070625;28;20198;-64
2023/06/13 13:29:21;;;;;;;4.72;2.95;;;;;;;;;;5062392;28;20214;-64
2023/06/13 13:31:49;;;;;;;3.97;3.17;;;;;;;;;;5066723;28;20318;-64
2023/06/13 13:34:16;;;;;;;3.40;3.10;;;;;;;;;;5062100;28;20643;-63
2023/06/13 13:36:52;;;;;;;5.47;3.03;;;;;;;;;;5049465;28;20254;-63
2023/06/13 13:39:20;;;;;;;3.85;2.90;;;;;;;;;;5058391;28;20284;-62
2023/06/13 13:41:47;;;;;;;4.32;3.30;;;;;;;;;;5059312;28;20234;-62
2023/06/13 13:44:15;;;;;;;4.60;3.15;;;;;;;;;;5065580;28;20266;-63
2023/06/13 13:46:42;;;;;;;3.45;2.80;;;;;;;;;;5051254;28;20202;-62
2023/06/13 13:49:11;;;;;;;3.50;3.00;;;;;;;;;;5071755;28;20741;-62
2023/06/13 13:51:38;;;;;;;4.40;3.40;;;;;;;;;;5072391;28;20225;-63
2023/06/13 13:54:06;;;;;;;3.30;3.00;;;;;;;;;;5070729;28;20667;-63
2023/06/13 13:56:33;;;;;;;3.30;3.00;;;;;;;;;;5072585;28;20326;-62
2023/06/13 13:59:00;;;;;;;3.90;3.50;;;;;;;;;;5073277;28;20678;-62
2023/06/13 14:01:28;;;;;;;4.75;2.88;;;;;;;;;;5075475;28;20228;-62
2023/06/13 14:03:55;;;;;;;4.85;3.22;;;;;;;;;;5076507;28;20224;-62
2023/06/13 14:06:23;;;;;;;3.30;3.00;;;;;;;;;;5064174;28;20255;-62
2023/06/13 14:08:50;;;;;;;3.45;3.15;;;;;;;;;;5080491;28;20193;-62
2023/06/13 14:11:20;;;;;;;4.63;3.38;;;;;;;;;;5070908;28;20252;-62
2023/06/13 14:13:47;;;;;;;4.68;3.53;;;;;;;;;;5070562;28;20206;-63
2023/06/13 14:16:15;;;;;;;3.20;2.90;;;;;;;;;;5079572;28;20267;-63
2023/06/13 14:18:42;;;;;;;3.50;3.20;;;;;;;;;;5071172;28;20194;-61
2023/06/13 14:21:10;;;;;;;3.08;2.88;;;;;;;;;;5079000;28;20229;-63
2023/06/13 14:23:37;;;;;;;9.23;3.13;;;;;;;;;;5067070;28;20730;-64
2023/06/13 14:26:04;;;;;;;3.30;3.00;;;;;;;;;;5059139;28;20203;-64
2023/06/13 14:28:32;;;;;;;3.38;2.75;;;;;;;;;;5061836;28;20717;-62
2023/06/13 14:30:59;;;;;;;3.80;3.30;;;;;;;;;;5065440;28;20270;-63
2023/06/13 14:33:26;;;;;;;3.42;3.13;;;;;;;;;;5060866;28;20209;-63
2023/06/13 14:35:55;;;;;;;3.58;3.25;;;;;;;;;;5068127;28;20771;-64
2023/06/13 14:38:23;;;;;;;4.70;2.85;;;;;;;;;;5041915;28;20203;-64
2023/06/13 14:40:50;;;;;;;3.20;2.90;;;;;;;;;;5064059;28;20267;-64
2023/06/13 14:43:18;;;;;;;7.97;2.92;;;;;;;;;;5070577;28;20225;-64
2023/06/13 14:45:45;;;;;;;4.28;3.05;;;;;;;;;;5050281;28;20197;-64
2023/06/13 14:48:13;;;;;;;3.75;2.80;;;;;;;;;;5057964;28;20706;-64
2023/06/13 14:50:40;;;;;;;4.85;2.70;;;;;;;;;;5051322;28;20835;-64
2023/06/13 14:53:07;;;;;;;3.05;2.85;;;;;;;;;;5069730;28;20925;-64